sensor_id;sensor_type;location;lat;lon;timestamp;P1;durP1;ratioP1;P2;durP2;ratioP2
67528;SDS011;54366;51.980;5.856;2022-08-02T00:01:43;1.10;;;0.40;;
67528;SDS011;54366;51.980;5.856;2022-08-02T00:04:09;2.50;;;0.85;;
67528;SDS011;54366;51.980;5.856;2022-08-02T00:06:36;1.17;;;0.40;;
67528;SDS011;54366;51.980;5.856;2022-08-02T00:09:03;2.13;;;0.60;;
67528;SDS011;54366;51.980;5.856;2022-08-02T00:11:30;2.13;;;0.50;;
67528;SDS011;54366;51.980;5.856;2022-08-02T00:13:56;2.25;;;0.60;;
67528;SDS011;54366;51.980;5.856;2022-08-02T00:16:23;1.02;;;0.50;;
67528;SDS011;54366;51.980;5.856;2022-08-02T00:18:49;2.60;;;0.60;;
67528;SDS011;54366;51.980;5.856;2022-08-02T00:21:15;2.25;;;0.60;;
67528;SDS011;54366;51.980;5.856;2022-08-02T00:23:42;3.05;;;0.60;;
67528;SDS011;54366;51.980;5.856;2022-08-02T00:26:08;1.60;;;0.60;;
67528;SDS011;54366;51.980;5.856;2022-08-02T00:28:35;1.88;;;0.52;;
67528;SDS011;54366;51.980;5.856;2022-08-02T00:31:01;2.25;;;0.50;;
67528;SDS011;54366;51.980;5.856;2022-08-02T00:33:27;1.90;;;0.52;;
67528;SDS011;54366;51.980;5.856;2022-08-02T00:35:53;2.05;;;0.60;;
67528;SDS011;54366;51.980;5.856;2022-08-02T00:38:19;2.78;;;0.63;;
67528;SDS011;54366;51.980;5.856;2022-08-02T00:40:46;1.42;;;0.50;;
67528;SDS011;54366;51.980;5.856;2022-08-02T00:43:13;2.40;;;0.47;;
67528;SDS011;54366;51.980;5.856;2022-08-02T00:45:40;0.98;;;0.40;;
67528;SDS011;54366;51.980;5.856;2022-08-02T00:48:07;1.35;;;0.50;;
67528;SDS011;54366;51.980;5.856;2022-08-02T00:50:35;1.25;;;0.60;;
67528;SDS011;54366;51.980;5.856;2022-08-02T00:53:02;1.48;;;0.55;;
67528;SDS011;54366;51.980;5.856;2022-08-02T00:55:29;1.67;;;0.40;;
67528;SDS011;54366;51.980;5.856;2022-08-02T00:57:56;2.20;;;0.55;;
67528;SDS011;54366;51.980;5.856;2022-08-02T01:00:23;2.55;;;0.80;;
67528;SDS011;54366;51.980;5.856;2022-08-02T01:02:49;2.55;;;0.60;;
67528;SDS011;54366;51.980;5.856;2022-08-02T01:05:15;1.92;;;0.75;;
67528;SDS011;54366;51.980;5.856;2022-08-02T01:07:42;2.08;;;0.60;;
67528;SDS011;54366;51.980;5.856;2022-08-02T01:10:08;2.83;;;0.93;;
67528;SDS011;54366;51.980;5.856;2022-08-02T01:12:35;2.20;;;0.80;;
67528;SDS011;54366;51.980;5.856;2022-08-02T01:15:06;2.70;;;0.60;;
67528;SDS011;54366;51.980;5.856;2022-08-02T01:17:41;3.00;;;0.88;;
67528;SDS011;54366;51.980;5.856;2022-08-02T01:36:53;2.58;;;0.85;;
67528;SDS011;54366;51.980;5.856;2022-08-02T01:39:24;3.90;;;0.88;;
67528;SDS011;54366;51.980;5.856;2022-08-02T01:41:53;3.53;;;0.82;;
67528;SDS011;54366;51.980;5.856;2022-08-02T01:44:22;2.33;;;0.98;;
67528;SDS011;54366;51.980;5.856;2022-08-02T01:46:55;1.88;;;0.90;;
67528;SDS011;54366;51.980;5.856;2022-08-02T01:49:25;2.17;;;0.90;;
67528;SDS011;54366;51.980;5.856;2022-08-02T01:51:54;1.75;;;0.80;;
67528;SDS011;54366;51.980;5.856;2022-08-02T01:54:41;1.85;;;0.70;;
67528;SDS011;54366;51.980;5.856;2022-08-02T01:57:09;2.75;;;0.88;;
67528;SDS011;54366;51.980;5.856;2022-08-02T01:59:39;1.83;;;0.90;;
67528;SDS011;54366;51.980;5.856;2022-08-02T02:02:08;2.40;;;1.00;;
67528;SDS011;54366;51.980;5.856;2022-08-02T02:04:36;1.77;;;0.90;;
67528;SDS011;54366;51.980;5.856;2022-08-02T02:07:04;2.30;;;0.70;;
67528;SDS011;54366;51.980;5.856;2022-08-02T02:09:34;2.45;;;0.80;;
67528;SDS011;54366;51.980;5.856;2022-08-02T02:12:03;3.28;;;1.00;;
67528;SDS011;54366;51.980;5.856;2022-08-02T02:14:31;3.63;;;0.88;;
67528;SDS011;54366;51.980;5.856;2022-08-02T02:16:59;3.30;;;1.05;;
67528;SDS011;54366;51.980;5.856;2022-08-02T02:19:26;2.78;;;1.02;;
67528;SDS011;54366;51.980;5.856;2022-08-02T02:21:54;3.13;;;1.10;;
67528;SDS011;54366;51.980;5.856;2022-08-02T02:24:21;1.52;;;0.90;;
67528;SDS011;54366;51.980;5.856;2022-08-02T02:26:47;2.53;;;1.17;;
67528;SDS011;54366;51.980;5.856;2022-08-02T02:29:15;3.15;;;1.02;;
67528;SDS011;54366;51.980;5.856;2022-08-02T02:31:43;2.88;;;1.17;;
67528;SDS011;54366;51.980;5.856;2022-08-02T02:34:13;2.22;;;0.88;;
67528;SDS011;54366;51.980;5.856;2022-08-02T02:36:47;2.42;;;0.95;;
67528;SDS011;54366;51.980;5.856;2022-08-02T02:39:15;2.08;;;0.88;;
67528;SDS011;54366;51.980;5.856;2022-08-02T02:41:45;3.42;;;1.20;;
67528;SDS011;54366;51.980;5.856;2022-08-02T02:44:15;2.78;;;1.10;;
67528;SDS011;54366;51.980;5.856;2022-08-02T02:46:44;2.30;;;0.90;;
67528;SDS011;54366;51.980;5.856;2022-08-02T02:49:12;2.47;;;1.02;;
67528;SDS011;54366;51.980;5.856;2022-08-02T02:51:41;3.47;;;1.15;;
67528;SDS011;54366;51.980;5.856;2022-08-02T02:54:09;2.38;;;1.13;;
67528;SDS011;54366;51.980;5.856;2022-08-02T02:56:37;3.47;;;1.25;;
67528;SDS011;54366;51.980;5.856;2022-08-02T02:59:06;2.42;;;1.30;;
67528;SDS011;54366;51.980;5.856;2022-08-02T03:01:33;3.38;;;1.10;;
67528;SDS011;54366;51.980;5.856;2022-08-02T03:04:01;2.55;;;0.80;;
67528;SDS011;54366;51.980;5.856;2022-08-02T03:06:31;2.58;;;1.38;;
67528;SDS011;54366;51.980;5.856;2022-08-02T03:08:57;2.83;;;1.42;;
67528;SDS011;54366;51.980;5.856;2022-08-02T03:11:24;1.63;;;1.20;;
67528;SDS011;54366;51.980;5.856;2022-08-02T03:13:57;1.83;;;1.30;;
67528;SDS011;54366;51.980;5.856;2022-08-02T03:16:25;3.50;;;1.55;;
67528;SDS011;54366;51.980;5.856;2022-08-02T03:18:55;2.15;;;1.00;;
67528;SDS011;54366;51.980;5.856;2022-08-02T03:21:22;1.65;;;1.10;;
67528;SDS011;54366;51.980;5.856;2022-08-02T03:23:49;3.00;;;1.40;;
67528;SDS011;54366;51.980;5.856;2022-08-02T03:26:15;3.17;;;1.48;;
67528;SDS011;54366;51.980;5.856;2022-08-02T03:28:41;1.98;;;1.20;;
67528;SDS011;54366;51.980;5.856;2022-08-02T03:31:11;4.57;;;1.73;;
67528;SDS011;54366;51.980;5.856;2022-08-02T03:33:37;2.83;;;1.33;;
67528;SDS011;54366;51.980;5.856;2022-08-02T03:36:05;3.15;;;1.30;;
67528;SDS011;54366;51.980;5.856;2022-08-02T03:38:36;2.47;;;1.05;;
67528;SDS011;54366;51.980;5.856;2022-08-02T03:41:03;5.25;;;1.75;;
67528;SDS011;54366;51.980;5.856;2022-08-02T03:43:30;2.58;;;1.23;;
67528;SDS011;54366;51.980;5.856;2022-08-02T03:45:57;2.15;;;1.25;;
67528;SDS011;54366;51.980;5.856;2022-08-02T03:48:26;3.67;;;1.50;;
67528;SDS011;54366;51.980;5.856;2022-08-02T03:50:52;2.92;;;1.20;;
67528;SDS011;54366;51.980;5.856;2022-08-02T03:53:19;2.08;;;1.10;;
67528;SDS011;54366;51.980;5.856;2022-08-02T03:55:46;2.22;;;1.20;;
67528;SDS011;54366;51.980;5.856;2022-08-02T03:58:18;2.22;;;1.10;;
67528;SDS011;54366;51.980;5.856;2022-08-02T04:00:46;2.70;;;1.20;;
67528;SDS011;54366;51.980;5.856;2022-08-02T04:03:13;3.28;;;1.40;;
67528;SDS011;54366;51.980;5.856;2022-08-02T04:05:40;2.33;;;1.10;;
67528;SDS011;54366;51.980;5.856;2022-08-02T04:08:06;2.83;;;1.45;;
67528;SDS011;54366;51.980;5.856;2022-08-02T04:10:33;2.00;;;1.38;;
67528;SDS011;54366;51.980;5.856;2022-08-02T04:13:19;4.53;;;1.40;;
67528;SDS011;54366;51.980;5.856;2022-08-02T04:15:49;1.58;;;0.88;;
67528;SDS011;54366;51.980;5.856;2022-08-02T04:18:18;4.60;;;1.55;;
67528;SDS011;54366;51.980;5.856;2022-08-02T04:20:47;2.80;;;1.20;;
67528;SDS011;54366;51.980;5.856;2022-08-02T04:23:15;3.13;;;1.33;;
67528;SDS011;54366;51.980;5.856;2022-08-02T04:25:42;4.30;;;1.58;;
67528;SDS011;54366;51.980;5.856;2022-08-02T04:28:10;3.35;;;1.38;;
67528;SDS011;54366;51.980;5.856;2022-08-02T04:30:38;2.53;;;1.48;;
67528;SDS011;54366;51.980;5.856;2022-08-02T04:33:04;2.05;;;1.00;;
67528;SDS011;54366;51.980;5.856;2022-08-02T04:35:31;2.28;;;1.35;;
67528;SDS011;54366;51.980;5.856;2022-08-02T04:37:58;1.65;;;1.10;;
67528;SDS011;54366;51.980;5.856;2022-08-02T04:40:24;3.35;;;1.92;;
67528;SDS011;54366;51.980;5.856;2022-08-02T04:42:50;3.33;;;1.90;;
67528;SDS011;54366;51.980;5.856;2022-08-02T04:45:16;2.25;;;1.50;;
67528;SDS011;54366;51.980;5.856;2022-08-02T04:47:43;3.65;;;1.60;;
67528;SDS011;54366;51.980;5.856;2022-08-02T04:50:10;3.03;;;1.80;;
67528;SDS011;54366;51.980;5.856;2022-08-02T04:52:36;3.72;;;1.60;;
67528;SDS011;54366;51.980;5.856;2022-08-02T04:55:02;2.08;;;1.33;;
67528;SDS011;54366;51.980;5.856;2022-08-02T04:57:28;2.75;;;1.48;;
67528;SDS011;54366;51.980;5.856;2022-08-02T05:00:13;3.25;;;1.40;;
67528;SDS011;54366;51.980;5.856;2022-08-02T05:02:40;3.47;;;1.80;;
67528;SDS011;54366;51.980;5.856;2022-08-02T05:05:06;2.92;;;1.80;;
67528;SDS011;54366;51.980;5.856;2022-08-02T05:07:32;3.88;;;1.30;;
67528;SDS011;54366;51.980;5.856;2022-08-02T05:09:58;2.42;;;1.30;;
67528;SDS011;54366;51.980;5.856;2022-08-02T05:12:25;2.95;;;1.67;;
67528;SDS011;54366;51.980;5.856;2022-08-02T05:14:51;2.75;;;1.95;;
67528;SDS011;54366;51.980;5.856;2022-08-02T05:17:17;3.03;;;1.63;;
67528;SDS011;54366;51.980;5.856;2022-08-02T05:19:43;3.17;;;1.90;;
67528;SDS011;54366;51.980;5.856;2022-08-02T05:22:09;2.05;;;1.40;;
67528;SDS011;54366;51.980;5.856;2022-08-02T05:24:36;2.85;;;1.60;;
67528;SDS011;54366;51.980;5.856;2022-08-02T05:27:02;3.47;;;1.65;;
67528;SDS011;54366;51.980;5.856;2022-08-02T05:29:28;1.60;;;1.27;;
67528;SDS011;54366;51.980;5.856;2022-08-02T05:31:54;2.65;;;1.52;;
67528;SDS011;54366;51.980;5.856;2022-08-02T05:34:20;2.97;;;1.65;;
67528;SDS011;54366;51.980;5.856;2022-08-02T05:36:47;3.00;;;1.48;;
67528;SDS011;54366;51.980;5.856;2022-08-02T05:39:13;3.95;;;1.92;;
67528;SDS011;54366;51.980;5.856;2022-08-02T05:41:39;2.17;;;1.60;;
67528;SDS011;54366;51.980;5.856;2022-08-02T05:44:05;2.88;;;1.50;;
67528;SDS011;54366;51.980;5.856;2022-08-02T05:46:31;1.75;;;1.45;;
67528;SDS011;54366;51.980;5.856;2022-08-02T05:48:57;2.05;;;1.50;;
67528;SDS011;54366;51.980;5.856;2022-08-02T05:51:28;3.45;;;1.33;;
67528;SDS011;54366;51.980;5.856;2022-08-02T05:54:10;2.30;;;1.40;;
67528;SDS011;54366;51.980;5.856;2022-08-02T05:56:50;2.65;;;1.25;;
67528;SDS011;54366;51.980;5.856;2022-08-02T06:02:00;2.92;;;1.60;;
67528;SDS011;54366;51.980;5.856;2022-08-02T06:07:39;2.15;;;1.58;;
67528;SDS011;54366;51.980;5.856;2022-08-02T06:10:08;2.97;;;1.73;;
67528;SDS011;54366;51.980;5.856;2022-08-02T06:12:41;3.13;;;1.60;;
67528;SDS011;54366;51.980;5.856;2022-08-02T06:15:12;2.58;;;1.58;;
67528;SDS011;54366;51.980;5.856;2022-08-02T06:17:40;3.80;;;1.65;;
67528;SDS011;54366;51.980;5.856;2022-08-02T06:20:07;5.00;;;1.80;;
67528;SDS011;54366;51.980;5.856;2022-08-02T06:22:35;3.22;;;1.60;;
67528;SDS011;54366;51.980;5.856;2022-08-02T06:25:06;3.80;;;2.22;;
67528;SDS011;54366;51.980;5.856;2022-08-02T06:27:32;4.68;;;2.15;;
67528;SDS011;54366;51.980;5.856;2022-08-02T06:30:00;2.70;;;2.00;;
67528;SDS011;54366;51.980;5.856;2022-08-02T06:32:27;5.10;;;2.30;;
67528;SDS011;54366;51.980;5.856;2022-08-02T06:34:53;2.30;;;2.08;;
67528;SDS011;54366;51.980;5.856;2022-08-02T06:37:27;3.42;;;2.28;;
67528;SDS011;54366;51.980;5.856;2022-08-02T06:40:06;3.85;;;2.00;;
67528;SDS011;54366;51.980;5.856;2022-08-02T06:45:10;4.68;;;2.10;;
67528;SDS011;54366;51.980;5.856;2022-08-02T06:47:36;2.30;;;2.10;;
67528;SDS011;54366;51.980;5.856;2022-08-02T06:50:03;3.08;;;1.75;;
67528;SDS011;54366;51.980;5.856;2022-08-02T06:52:29;3.05;;;1.80;;
67528;SDS011;54366;51.980;5.856;2022-08-02T06:55:01;5.00;;;2.50;;
67528;SDS011;54366;51.980;5.856;2022-08-02T06:57:29;3.90;;;2.35;;
67528;SDS011;54366;51.980;5.856;2022-08-02T06:59:55;3.40;;;1.88;;
67528;SDS011;54366;51.980;5.856;2022-08-02T07:02:22;1.85;;;1.52;;
67528;SDS011;54366;51.980;5.856;2022-08-02T07:04:49;4.80;;;2.75;;
67528;SDS011;54366;51.980;5.856;2022-08-02T07:07:15;4.20;;;2.50;;
67528;SDS011;54366;51.980;5.856;2022-08-02T07:09:41;4.43;;;2.35;;
67528;SDS011;54366;51.980;5.856;2022-08-02T07:12:08;4.18;;;2.50;;
67528;SDS011;54366;51.980;5.856;2022-08-02T07:14:34;5.22;;;2.35;;
67528;SDS011;54366;51.980;5.856;2022-08-02T07:17:00;4.90;;;2.95;;
67528;SDS011;54366;51.980;5.856;2022-08-02T07:19:27;3.25;;;2.50;;
67528;SDS011;54366;51.980;5.856;2022-08-02T07:21:53;4.72;;;2.90;;
67528;SDS011;54366;51.980;5.856;2022-08-02T07:24:19;4.28;;;2.35;;
67528;SDS011;54366;51.980;5.856;2022-08-02T07:26:45;3.75;;;2.38;;
67528;SDS011;54366;51.980;5.856;2022-08-02T07:29:11;3.42;;;2.55;;
67528;SDS011;54366;51.980;5.856;2022-08-02T07:31:38;4.88;;;2.63;;
67528;SDS011;54366;51.980;5.856;2022-08-02T07:34:04;4.53;;;2.30;;
67528;SDS011;54366;51.980;5.856;2022-08-02T07:36:30;4.15;;;2.10;;
67528;SDS011;54366;51.980;5.856;2022-08-02T07:38:56;5.93;;;2.70;;
67528;SDS011;54366;51.980;5.856;2022-08-02T07:41:22;4.50;;;2.60;;
67528;SDS011;54366;51.980;5.856;2022-08-02T07:43:49;4.32;;;2.60;;
67528;SDS011;54366;51.980;5.856;2022-08-02T07:46:15;3.65;;;2.47;;
67528;SDS011;54366;51.980;5.856;2022-08-02T07:48:42;4.80;;;3.30;;
67528;SDS011;54366;51.980;5.856;2022-08-02T07:51:08;6.82;;;3.78;;
67528;SDS011;54366;51.980;5.856;2022-08-02T07:53:34;3.50;;;3.20;;
67528;SDS011;54366;51.980;5.856;2022-08-02T07:56:00;7.63;;;3.83;;
67528;SDS011;54366;51.980;5.856;2022-08-02T07:58:26;3.85;;;3.45;;
67528;SDS011;54366;51.980;5.856;2022-08-02T08:00:53;4.45;;;3.47;;
67528;SDS011;54366;51.980;5.856;2022-08-02T08:03:19;4.43;;;4.07;;
67528;SDS011;54366;51.980;5.856;2022-08-02T08:05:45;5.18;;;4.10;;
67528;SDS011;54366;51.980;5.856;2022-08-02T08:08:11;5.57;;;4.18;;
67528;SDS011;54366;51.980;5.856;2022-08-02T08:10:41;6.80;;;4.65;;
67528;SDS011;54366;51.980;5.856;2022-08-02T08:13:07;6.18;;;5.57;;
67528;SDS011;54366;51.980;5.856;2022-08-02T08:15:33;5.40;;;4.90;;
67528;SDS011;54366;51.980;5.856;2022-08-02T08:17:59;5.40;;;4.90;;
67528;SDS011;54366;51.980;5.856;2022-08-02T08:20:26;7.82;;;5.97;;
67528;SDS011;54366;51.980;5.856;2022-08-02T08:22:52;6.88;;;5.10;;
67528;SDS011;54366;51.980;5.856;2022-08-02T08:25:18;6.53;;;5.63;;
67528;SDS011;54366;51.980;5.856;2022-08-02T08:27:51;8.57;;;6.13;;
67528;SDS011;54366;51.980;5.856;2022-08-02T08:30:18;8.07;;;6.03;;
67528;SDS011;54366;51.980;5.856;2022-08-02T08:32:45;6.45;;;5.82;;
67528;SDS011;54366;51.980;5.856;2022-08-02T08:35:12;5.05;;;4.50;;
67528;SDS011;54366;51.980;5.856;2022-08-02T08:37:38;5.13;;;4.63;;
67528;SDS011;54366;51.980;5.856;2022-08-02T08:40:05;5.32;;;4.82;;
67528;SDS011;54366;51.980;5.856;2022-08-02T08:42:34;5.70;;;5.20;;
67528;SDS011;54366;51.980;5.856;2022-08-02T08:45:01;6.40;;;5.65;;
67528;SDS011;54366;51.980;5.856;2022-08-02T08:47:35;5.00;;;4.60;;
67528;SDS011;54366;51.980;5.856;2022-08-02T08:50:06;5.82;;;4.95;;
67528;SDS011;54366;51.980;5.856;2022-08-02T08:52:41;5.80;;;5.20;;
67528;SDS011;54366;51.980;5.856;2022-08-02T08:55:10;5.82;;;5.20;;
67528;SDS011;54366;51.980;5.856;2022-08-02T08:57:39;6.47;;;5.00;;
67528;SDS011;54366;51.980;5.856;2022-08-02T09:00:07;5.28;;;4.60;;
67528;SDS011;54366;51.980;5.856;2022-08-02T09:02:35;4.40;;;3.80;;
67528;SDS011;54366;51.980;5.856;2022-08-02T09:05:01;4.15;;;3.80;;
67528;SDS011;54366;51.980;5.856;2022-08-02T09:07:28;3.47;;;3.17;;
67528;SDS011;54366;51.980;5.856;2022-08-02T09:09:54;4.35;;;3.58;;
67528;SDS011;54366;51.980;5.856;2022-08-02T09:12:20;4.15;;;3.63;;
67528;SDS011;54366;51.980;5.856;2022-08-02T09:14:47;2.70;;;2.50;;
67528;SDS011;54366;51.980;5.856;2022-08-02T09:17:13;3.20;;;2.75;;
67528;SDS011;54366;51.980;5.856;2022-08-02T09:19:39;2.50;;;2.28;;
67528;SDS011;54366;51.980;5.856;2022-08-02T09:22:09;4.90;;;1.85;;
67528;SDS011;54366;51.980;5.856;2022-08-02T09:24:40;2.30;;;1.58;;
67528;SDS011;54366;51.980;5.856;2022-08-02T09:27:09;3.33;;;1.88;;
67528;SDS011;54366;51.980;5.856;2022-08-02T09:29:44;2.58;;;1.88;;
67528;SDS011;54366;51.980;5.856;2022-08-02T09:32:14;1.52;;;1.42;;
67528;SDS011;54366;51.980;5.856;2022-08-02T09:34:44;1.63;;;1.38;;
67528;SDS011;54366;51.980;5.856;2022-08-02T09:37:25;1.75;;;1.60;;
67528;SDS011;54366;51.980;5.856;2022-08-02T09:39:53;2.25;;;1.67;;
67528;SDS011;54366;51.980;5.856;2022-08-02T09:42:25;4.88;;;1.70;;
67528;SDS011;54366;51.980;5.856;2022-08-02T09:44:55;2.53;;;1.90;;
67528;SDS011;54366;51.980;5.856;2022-08-02T09:47:23;2.42;;;2.00;;
67528;SDS011;54366;51.980;5.856;2022-08-02T09:49:54;2.60;;;2.10;;
67528;SDS011;54366;51.980;5.856;2022-08-02T09:52:24;2.35;;;2.15;;
67528;SDS011;54366;51.980;5.856;2022-08-02T09:54:51;1.70;;;1.50;;
67528;SDS011;54366;51.980;5.856;2022-08-02T09:57:25;2.10;;;1.38;;
67528;SDS011;54366;51.980;5.856;2022-08-02T09:59:56;2.65;;;1.50;;
67528;SDS011;54366;51.980;5.856;2022-08-02T10:02:23;1.70;;;1.60;;
67528;SDS011;54366;51.980;5.856;2022-08-02T10:04:50;4.30;;;1.63;;
67528;SDS011;54366;51.980;5.856;2022-08-02T10:07:16;1.60;;;1.50;;
67528;SDS011;54366;51.980;5.856;2022-08-02T10:09:44;1.85;;;1.50;;
67528;SDS011;54366;51.980;5.856;2022-08-02T10:12:11;2.00;;;1.48;;
67528;SDS011;54366;51.980;5.856;2022-08-02T10:14:38;1.50;;;1.40;;
67528;SDS011;54366;51.980;5.856;2022-08-02T10:17:05;3.03;;;1.40;;
67528;SDS011;54366;51.980;5.856;2022-08-02T10:19:31;2.17;;;1.45;;
67528;SDS011;54366;51.980;5.856;2022-08-02T10:22:08;2.53;;;1.35;;
67528;SDS011;54366;51.980;5.856;2022-08-02T10:24:37;2.97;;;1.30;;
67528;SDS011;54366;51.980;5.856;2022-08-02T10:27:14;1.70;;;1.60;;
67528;SDS011;54366;51.980;5.856;2022-08-02T10:29:44;3.35;;;1.38;;
67528;SDS011;54366;51.980;5.856;2022-08-02T10:32:30;1.98;;;1.30;;
67528;SDS011;54366;51.980;5.856;2022-08-02T10:35:05;1.20;;;0.90;;
67528;SDS011;54366;51.980;5.856;2022-08-02T10:40:04;0.98;;;0.90;;
67528;SDS011;54366;51.980;5.856;2022-08-02T10:42:52;1.48;;;0.90;;
67528;SDS011;54366;51.980;5.856;2022-08-02T10:45:19;1.48;;;1.00;;
67528;SDS011;54366;51.980;5.856;2022-08-02T10:53:29;1.08;;;0.98;;
67528;SDS011;54366;51.980;5.856;2022-08-02T10:56:00;1.40;;;1.00;;
67528;SDS011;54366;51.980;5.856;2022-08-02T10:58:29;1.25;;;0.95;;
67528;SDS011;54366;51.980;5.856;2022-08-02T11:00:57;1.48;;;1.38;;
67528;SDS011;54366;51.980;5.856;2022-08-02T11:03:39;2.50;;;1.13;;
67528;SDS011;54366;51.980;5.856;2022-08-02T11:06:10;0.80;;;0.80;;
67528;SDS011;54366;51.980;5.856;2022-08-02T11:08:38;1.65;;;0.90;;
67528;SDS011;54366;51.980;5.856;2022-08-02T11:19:20;1.48;;;0.85;;
67528;SDS011;54366;51.980;5.856;2022-08-02T11:22:04;1.02;;;0.90;;
67528;SDS011;54366;51.980;5.856;2022-08-02T11:24:32;2.15;;;0.88;;
67528;SDS011;54366;51.980;5.856;2022-08-02T11:27:00;1.95;;;0.82;;
67528;SDS011;54366;51.980;5.856;2022-08-02T11:31:58;0.90;;;0.75;;
67528;SDS011;54366;51.980;5.856;2022-08-02T11:34:25;0.70;;;0.70;;
67528;SDS011;54366;51.980;5.856;2022-08-02T11:36:51;1.00;;;0.85;;
67528;SDS011;54366;51.980;5.856;2022-08-02T11:39:20;1.15;;;0.95;;
67528;SDS011;54366;51.980;5.856;2022-08-02T11:41:57;1.45;;;0.90;;
67528;SDS011;54366;51.980;5.856;2022-08-02T11:44:25;1.05;;;0.85;;
67528;SDS011;54366;51.980;5.856;2022-08-02T11:46:56;1.13;;;0.80;;
67528;SDS011;54366;51.980;5.856;2022-08-02T11:49:25;1.40;;;0.90;;
67528;SDS011;54366;51.980;5.856;2022-08-02T11:51:56;0.82;;;0.80;;
67528;SDS011;54366;51.980;5.856;2022-08-02T11:54:31;0.80;;;0.80;;
67528;SDS011;54366;51.980;5.856;2022-08-02T11:57:09;0.80;;;0.65;;
67528;SDS011;54366;51.980;5.856;2022-08-02T11:59:42;0.80;;;0.80;;
67528;SDS011;54366;51.980;5.856;2022-08-02T12:02:09;1.15;;;0.63;;
67528;SDS011;54366;51.980;5.856;2022-08-02T12:04:36;1.08;;;0.80;;
67528;SDS011;54366;51.980;5.856;2022-08-02T12:07:04;0.73;;;0.73;;
67528;SDS011;54366;51.980;5.856;2022-08-02T12:09:32;0.70;;;0.70;;
67528;SDS011;54366;51.980;5.856;2022-08-02T12:12:00;1.15;;;0.82;;
67528;SDS011;54366;51.980;5.856;2022-08-02T12:14:27;0.70;;;0.70;;
67528;SDS011;54366;51.980;5.856;2022-08-02T12:16:55;1.20;;;0.70;;
67528;SDS011;54366;51.980;5.856;2022-08-02T12:19:41;1.85;;;0.80;;
67528;SDS011;54366;51.980;5.856;2022-08-02T12:22:15;1.27;;;1.13;;
67528;SDS011;54366;51.980;5.856;2022-08-02T12:24:55;0.75;;;0.65;;
67528;SDS011;54366;51.980;5.856;2022-08-02T12:30:06;0.70;;;0.68;;
67528;SDS011;54366;51.980;5.856;2022-08-02T12:32:41;0.80;;;0.60;;
67528;SDS011;54366;51.980;5.856;2022-08-02T12:35:15;0.40;;;0.40;;
67528;SDS011;54366;51.980;5.856;2022-08-02T12:37:44;1.58;;;0.85;;
67528;SDS011;54366;51.980;5.856;2022-08-02T12:40:20;0.60;;;0.60;;
67528;SDS011;54366;51.980;5.856;2022-08-02T12:42:52;1.55;;;0.98;;
67528;SDS011;54366;51.980;5.856;2022-08-02T12:45:23;0.50;;;0.50;;
67528;SDS011;54366;51.980;5.856;2022-08-02T12:47:51;1.95;;;0.75;;
67528;SDS011;54366;51.980;5.856;2022-08-02T12:50:27;0.93;;;0.63;;
67528;SDS011;54366;51.980;5.856;2022-08-02T12:53:29;0.70;;;0.60;;
67528;SDS011;54366;51.980;5.856;2022-08-02T12:55:55;0.95;;;0.70;;
67528;SDS011;54366;51.980;5.856;2022-08-02T12:58:22;1.33;;;0.75;;
67528;SDS011;54366;51.980;5.856;2022-08-02T13:00:53;1.25;;;0.55;;
67528;SDS011;54366;51.980;5.856;2022-08-02T13:03:26;1.67;;;0.70;;
67528;SDS011;54366;51.980;5.856;2022-08-02T13:05:52;0.55;;;0.50;;
67528;SDS011;54366;51.980;5.856;2022-08-02T13:08:19;0.85;;;0.50;;
67528;SDS011;54366;51.980;5.856;2022-08-02T13:10:45;1.25;;;0.65;;
67528;SDS011;54366;51.980;5.856;2022-08-02T13:13:11;1.15;;;0.50;;
67528;SDS011;54366;51.980;5.856;2022-08-02T13:15:37;0.63;;;0.40;;
67528;SDS011;54366;51.980;5.856;2022-08-02T13:18:03;1.25;;;0.60;;
67528;SDS011;54366;51.980;5.856;2022-08-02T13:20:30;1.38;;;0.70;;
67528;SDS011;54366;51.980;5.856;2022-08-02T13:22:56;2.22;;;0.55;;
67528;SDS011;54366;51.980;5.856;2022-08-02T13:25:23;1.23;;;0.65;;
67528;SDS011;54366;51.980;5.856;2022-08-02T13:27:49;0.52;;;0.50;;
67528;SDS011;54366;51.980;5.856;2022-08-02T13:30:16;0.47;;;0.38;;
67528;SDS011;54366;51.980;5.856;2022-08-02T13:32:43;1.75;;;0.85;;
67528;SDS011;54366;51.980;5.856;2022-08-02T13:35:09;1.30;;;0.68;;
67528;SDS011;54366;51.980;5.856;2022-08-02T13:37:35;1.30;;;0.60;;
67528;SDS011;54366;51.980;5.856;2022-08-02T13:40:02;0.93;;;0.60;;
67528;SDS011;54366;51.980;5.856;2022-08-02T13:42:29;0.82;;;0.60;;
67528;SDS011;54366;51.980;5.856;2022-08-02T13:44:55;0.68;;;0.55;;
67528;SDS011;54366;51.980;5.856;2022-08-02T13:47:21;0.52;;;0.50;;
67528;SDS011;54366;51.980;5.856;2022-08-02T13:49:47;0.80;;;0.50;;
67528;SDS011;54366;51.980;5.856;2022-08-02T13:52:15;0.60;;;0.40;;
67528;SDS011;54366;51.980;5.856;2022-08-02T13:54:41;1.40;;;0.70;;
67528;SDS011;54366;51.980;5.856;2022-08-02T13:57:08;0.80;;;0.45;;
67528;SDS011;54366;51.980;5.856;2022-08-02T13:59:34;1.05;;;0.60;;
67528;SDS011;54366;51.980;5.856;2022-08-02T14:02:00;1.17;;;0.45;;
67528;SDS011;54366;51.980;5.856;2022-08-02T14:04:26;1.58;;;0.70;;
67528;SDS011;54366;51.980;5.856;2022-08-02T14:06:55;0.45;;;0.45;;
67528;SDS011;54366;51.980;5.856;2022-08-02T14:09:22;0.98;;;0.47;;
67528;SDS011;54366;51.980;5.856;2022-08-02T14:11:49;1.55;;;0.60;;
67528;SDS011;54366;51.980;5.856;2022-08-02T14:14:15;0.98;;;0.65;;
67528;SDS011;54366;51.980;5.856;2022-08-02T14:16:42;1.23;;;0.57;;
67528;SDS011;54366;51.980;5.856;2022-08-02T14:19:11;0.77;;;0.60;;
67528;SDS011;54366;51.980;5.856;2022-08-02T14:21:38;0.70;;;0.70;;
67528;SDS011;54366;51.980;5.856;2022-08-02T14:24:04;0.60;;;0.60;;
67528;SDS011;54366;51.980;5.856;2022-08-02T14:26:30;1.45;;;0.60;;
67528;SDS011;54366;51.980;5.856;2022-08-02T14:28:56;0.85;;;0.50;;
67528;SDS011;54366;51.980;5.856;2022-08-02T14:31:23;1.15;;;0.80;;
67528;SDS011;54366;51.980;5.856;2022-08-02T14:33:49;1.48;;;0.52;;
67528;SDS011;54366;51.980;5.856;2022-08-02T14:36:15;2.08;;;0.60;;
67528;SDS011;54366;51.980;5.856;2022-08-02T14:38:41;0.80;;;0.60;;
67528;SDS011;54366;51.980;5.856;2022-08-02T14:41:08;0.70;;;0.50;;
67528;SDS011;54366;51.980;5.856;2022-08-02T14:43:34;0.60;;;0.32;;
67528;SDS011;54366;51.980;5.856;2022-08-02T14:46:19;1.05;;;0.50;;
67528;SDS011;54366;51.980;5.856;2022-08-02T14:48:45;0.60;;;0.57;;
67528;SDS011;54366;51.980;5.856;2022-08-02T14:51:11;0.60;;;0.47;;
67528;SDS011;54366;51.980;5.856;2022-08-02T14:53:39;1.30;;;0.47;;
67528;SDS011;54366;51.980;5.856;2022-08-02T14:56:05;1.55;;;0.50;;
67528;SDS011;54366;51.980;5.856;2022-08-02T14:58:31;0.60;;;0.50;;
67528;SDS011;54366;51.980;5.856;2022-08-02T15:00:57;1.92;;;0.50;;
67528;SDS011;54366;51.980;5.856;2022-08-02T15:03:24;1.05;;;0.52;;
67528;SDS011;54366;51.980;5.856;2022-08-02T15:05:50;0.95;;;0.50;;
67528;SDS011;54366;51.980;5.856;2022-08-02T15:08:16;1.20;;;0.40;;
67528;SDS011;54366;51.980;5.856;2022-08-02T15:10:42;1.95;;;0.70;;
67528;SDS011;54366;51.980;5.856;2022-08-02T15:13:09;1.17;;;0.55;;
67528;SDS011;54366;51.980;5.856;2022-08-02T15:15:36;1.10;;;0.65;;
67528;SDS011;54366;51.980;5.856;2022-08-02T15:18:02;1.48;;;0.68;;
67528;SDS011;54366;51.980;5.856;2022-08-02T15:20:28;1.17;;;0.57;;
67528;SDS011;54366;51.980;5.856;2022-08-02T15:22:54;0.70;;;0.60;;
67528;SDS011;54366;51.980;5.856;2022-08-02T15:25:21;2.03;;;0.60;;
67528;SDS011;54366;51.980;5.856;2022-08-02T15:27:47;0.80;;;0.60;;
67528;SDS011;54366;51.980;5.856;2022-08-02T15:30:13;1.85;;;0.50;;
67528;SDS011;54366;51.980;5.856;2022-08-02T15:32:39;1.60;;;0.50;;
67528;SDS011;54366;51.980;5.856;2022-08-02T15:35:06;1.00;;;0.50;;
67528;SDS011;54366;51.980;5.856;2022-08-02T15:37:32;1.27;;;0.60;;
67528;SDS011;54366;51.980;5.856;2022-08-02T15:39:58;1.58;;;0.70;;
67528;SDS011;54366;51.980;5.856;2022-08-02T15:42:25;1.10;;;0.73;;